createdAt,value
2022-08-26T00:02:07.144Z,15.55
2022-08-26T00:04:35.826Z,15.02
2022-08-26T00:07:04.681Z,19.15
2022-08-26T00:09:38.898Z,20.00
2022-08-26T00:12:09.297Z,15.65
2022-08-26T00:14:40.485Z,21.17
2022-08-26T00:17:08.749Z,17.50
2022-08-26T00:19:37.389Z,24.10
2022-08-26T00:22:06.017Z,16.00
2022-08-26T00:24:35.510Z,16.27
2022-08-26T00:27:03.418Z,18.52
2022-08-26T00:29:34.830Z,20.48
2022-08-26T00:32:06.231Z,32.72
2022-08-26T00:34:34.705Z,17.02
2022-08-26T00:37:02.725Z,25.23
2022-08-26T00:39:31.965Z,19.70
2022-08-26T00:42:01.481Z,13.68
2022-08-26T00:44:30.624Z,32.28
2022-08-26T00:47:03.684Z,31.80
2022-08-26T00:49:39.580Z,20.02
2022-08-26T00:52:13.265Z,14.20
2022-08-26T00:54:50.420Z,20.20
2022-08-26T00:57:22.311Z,25.23
2022-08-26T00:59:54.382Z,18.35
2022-08-26T01:02:22.702Z,21.75
2022-08-26T01:04:55.834Z,20.95
2022-08-26T01:07:27.584Z,17.00
2022-08-26T01:09:59.705Z,17.10
2022-08-26T01:12:32.381Z,12.55
2022-08-26T01:15:02.087Z,12.27
2022-08-26T01:17:30.099Z,12.07
2022-08-26T01:20:08.637Z,11.87
2022-08-26T01:22:46.865Z,12.45
2022-08-26T01:25:16.135Z,15.80
2022-08-26T01:27:44.965Z,11.25
2022-08-26T01:30:17.769Z,17.13
2022-08-26T01:32:47.082Z,18.33
2022-08-26T01:35:15.106Z,16.77
2022-08-26T01:37:44.567Z,15.38
2022-08-26T01:40:17.854Z,19.42
2022-08-26T01:45:18.344Z,11.05
2022-08-26T01:47:49.660Z,11.13
2022-08-26T01:50:30.396Z,14.43
2022-08-26T01:53:05.726Z,15.98
2022-08-26T01:55:35.261Z,16.55
2022-08-26T01:58:09.680Z,21.05
2022-08-26T02:00:39.190Z,14.88
2022-08-26T02:03:17.960Z,12.93
2022-08-26T02:05:52.717Z,14.13
2022-08-26T02:08:26.398Z,19.17
2022-08-26T02:10:55.361Z,14.02
2022-08-26T02:13:27.512Z,13.40
2022-08-26T02:15:56.313Z,25.73
2022-08-26T02:18:25.505Z,17.02
2022-08-26T02:20:55.130Z,24.77
2022-08-26T02:23:25.564Z,18.00
2022-08-26T02:25:59.383Z,12.98
2022-08-26T02:28:32.056Z,14.82
2022-08-26T02:31:00.302Z,16.52
2022-08-26T02:33:30.994Z,9.55
2022-08-26T02:35:58.980Z,11.48
2022-08-26T02:38:29.414Z,14.80
2022-08-26T02:40:57.578Z,9.45
2022-08-26T02:43:31.406Z,9.77
2022-08-26T02:46:02.310Z,11.35
2022-08-26T02:48:31.056Z,8.73
2022-08-26T02:51:00.703Z,9.90
2022-08-26T02:53:32.089Z,12.55
2022-08-26T02:56:04.383Z,12.57
2022-08-26T02:58:32.451Z,11.73
2022-08-26T03:01:01.550Z,10.00
2022-08-26T03:03:30.144Z,9.60
2022-08-26T03:05:58.536Z,8.00
2022-08-26T03:08:26.797Z,8.20
2022-08-26T03:10:56.708Z,9.45
2022-08-26T03:13:24.674Z,10.93
2022-08-26T03:15:52.695Z,10.57
2022-08-26T03:18:20.734Z,14.18
2022-08-26T03:20:49.254Z,26.20
2022-08-26T03:23:17.198Z,19.45
2022-08-26T03:25:50.384Z,16.00
2022-08-26T03:28:20.308Z,30.92
2022-08-26T03:30:48.058Z,15.98
2022-08-26T03:33:17.096Z,48.08
2022-08-26T03:35:47.864Z,16.65
2022-08-26T03:38:19.749Z,7.97
2022-08-26T03:40:47.858Z,4.60
2022-08-26T03:43:17.681Z,10.50
2022-08-26T03:45:47.516Z,5.97
2022-08-26T03:48:15.573Z,4.82
2022-08-26T03:50:44.022Z,6.95
2022-08-26T03:53:12.965Z,13.15
2022-08-26T03:55:42.276Z,7.43
2022-08-26T03:58:11.918Z,4.80
2022-08-26T04:00:39.978Z,7.43
2022-08-26T04:03:14.758Z,7.10
2022-08-26T04:05:46.126Z,9.77
2022-08-26T04:08:14.711Z,16.13
2022-08-26T04:10:43.493Z,7.40
2022-08-26T04:13:12.170Z,6.40
2022-08-26T04:15:40.419Z,4.20
2022-08-26T04:18:09.796Z,8.68
2022-08-26T04:20:37.849Z,23.52
2022-08-26T04:23:05.965Z,10.02
2022-08-26T04:25:33.989Z,9.30
2022-08-26T04:28:04.233Z,5.75
2022-08-26T04:30:32.262Z,14.27
2022-08-26T04:33:00.896Z,8.93
2022-08-26T04:35:30.662Z,18.02
2022-08-26T04:37:58.940Z,10.13
2022-08-26T04:40:27.665Z,8.00
2022-08-26T04:42:55.832Z,6.50
2022-08-26T04:45:24.667Z,12.88
2022-08-26T04:47:57.201Z,7.47
2022-08-26T04:52:56.449Z,6.53
2022-08-26T04:55:25.252Z,12.20
2022-08-26T04:58:10.206Z,13.55
2022-08-26T05:00:39.551Z,10.15
2022-08-26T05:03:10.248Z,9.10
2022-08-26T05:05:43.190Z,5.32
2022-08-26T05:08:13.603Z,17.08
2022-08-26T05:10:42.406Z,8.50
2022-08-26T05:13:15.159Z,15.98
2022-08-26T05:15:44.388Z,5.32
2022-08-26T05:18:14.772Z,10.88
2022-08-26T05:20:44.802Z,11.25
2022-08-26T05:23:15.208Z,4.47
2022-08-26T05:25:46.763Z,6.72
2022-08-26T05:28:16.638Z,6.53
2022-08-26T05:30:44.880Z,5.82
2022-08-26T05:33:13.517Z,8.25
2022-08-26T05:35:42.520Z,6.70
2022-08-26T05:38:13.206Z,6.57
2022-08-26T05:40:45.712Z,5.05
2022-08-26T05:45:46.122Z,8.65
2022-08-26T05:48:15.355Z,9.70
2022-08-26T05:50:45.594Z,10.77
2022-08-26T05:53:15.228Z,17.90
2022-08-26T05:55:48.896Z,6.25
2022-08-26T05:58:19.991Z,5.25
2022-08-26T06:00:57.902Z,8.55
2022-08-26T06:03:26.225Z,10.43
2022-08-26T06:05:54.655Z,10.50
2022-08-26T06:08:23.167Z,13.25
2022-08-26T06:10:55.093Z,5.82
2022-08-26T06:13:25.588Z,9.25
2022-08-26T06:15:55.333Z,5.28
2022-08-26T06:18:27.314Z,4.80
2022-08-26T06:20:58.399Z,10.05
2022-08-26T06:23:46.262Z,6.03
2022-08-26T06:26:16.980Z,4.88
2022-08-26T06:28:45.754Z,8.27
2022-08-26T06:31:14.722Z,5.00
2022-08-26T06:33:43.320Z,7.00
2022-08-26T06:36:16.683Z,8.88
2022-08-26T06:38:47.300Z,6.43
2022-08-26T06:41:16.989Z,14.68
2022-08-26T06:43:45.706Z,8.43
2022-08-26T06:46:16.504Z,8.30
2022-08-26T06:48:44.748Z,4.80
2022-08-26T06:51:14.657Z,7.50
2022-08-26T06:53:45.517Z,8.68
2022-08-26T06:56:14.436Z,14.80
2022-08-26T06:58:44.117Z,6.88
2022-08-26T07:01:20.004Z,7.82
2022-08-26T07:03:50.018Z,16.58
2022-08-26T07:06:19.842Z,9.18
2022-08-26T07:08:48.320Z,10.18
2022-08-26T07:11:16.869Z,10.93
2022-08-26T07:13:46.832Z,7.22
2022-08-26T07:16:17.646Z,8.55
2022-08-26T07:18:46.675Z,6.93
2022-08-26T07:21:16.572Z,5.80
2022-08-26T07:23:46.393Z,8.48
2022-08-26T07:26:17.724Z,9.48
2022-08-26T07:28:50.544Z,12.15
2022-08-26T07:31:26.099Z,4.50
2022-08-26T07:33:54.606Z,4.30
2022-08-26T07:36:24.086Z,6.35
2022-08-26T07:38:52.277Z,6.80
2022-08-26T07:41:23.209Z,7.38
2022-08-26T07:43:52.893Z,5.47
2022-08-26T07:46:26.919Z,8.52
2022-08-26T07:48:55.541Z,5.63
2022-08-26T07:51:24.816Z,6.65
2022-08-26T07:53:53.420Z,4.63
2022-08-26T07:56:22.922Z,6.95
2022-08-26T07:58:52.857Z,5.50
2022-08-26T08:01:21.583Z,4.68
2022-08-26T08:03:51.538Z,7.45
2022-08-26T08:06:20.420Z,7.15
2022-08-26T08:08:50.915Z,12.82
2022-08-26T08:11:21.189Z,9.90
2022-08-26T08:13:56.001Z,7.53
2022-08-26T08:16:26.729Z,5.65
2022-08-26T08:18:55.788Z,11.68
2022-08-26T08:21:24.661Z,10.50
2022-08-26T08:23:53.763Z,9.13
2022-08-26T08:26:22.397Z,6.18
2022-08-26T08:28:50.818Z,11.52
2022-08-26T08:31:52.143Z,3.85
2022-08-26T08:34:12.889Z,7.40
2022-08-26T08:36:40.933Z,6.25
2022-08-26T08:39:09.656Z,10.15
2022-08-26T08:41:54.373Z,5.97
2022-08-26T08:47:04.832Z,4.25
2022-08-26T08:49:35.733Z,6.45
2022-08-26T08:52:10.698Z,5.50
2022-08-26T08:54:39.408Z,3.70
2022-08-26T08:57:16.547Z,6.28
2022-08-26T09:00:02.433Z,5.28
2022-08-26T09:02:36.909Z,7.85
2022-08-26T09:05:22.443Z,10.18
2022-08-26T09:07:54.805Z,5.60
2022-08-26T09:10:33.167Z,6.50
2022-08-26T09:13:06.621Z,5.03
2022-08-26T09:15:47.186Z,8.80
2022-08-26T09:18:28.513Z,12.55
2022-08-26T09:21:03.205Z,6.22
2022-08-26T09:23:33.154Z,9.55
2022-08-26T09:26:16.796Z,8.30
2022-08-26T09:28:49.145Z,5.57
2022-08-26T09:31:23.327Z,6.03
2022-08-26T09:34:07.211Z,7.28
2022-08-26T09:36:41.396Z,6.47
2022-08-26T09:39:31.973Z,8.02
2022-08-26T09:42:06.527Z,8.52
2022-08-26T09:44:36.599Z,6.32
2022-08-26T09:47:07.604Z,7.50
2022-08-26T09:49:38.005Z,10.10
2022-08-26T09:52:21.419Z,9.75
2022-08-26T09:57:33.857Z,5.32
2022-08-26T10:00:03.333Z,8.65
2022-08-26T10:02:47.934Z,5.20
2022-08-26T10:05:27.527Z,3.75
2022-08-26T10:08:00.164Z,5.13
2022-08-26T10:10:33.046Z,7.72
2022-08-26T10:13:06.911Z,5.25
2022-08-26T10:15:50.079Z,6.40
2022-08-26T10:18:25.097Z,5.80
2022-08-26T10:20:59.524Z,7.05
2022-08-26T10:23:33.986Z,5.47
2022-08-26T10:26:09.582Z,7.60
2022-08-26T10:28:42.321Z,6.75
2022-08-26T10:31:27.799Z,7.60
2022-08-26T10:33:59.997Z,7.85
2022-08-26T10:37:10.543Z,6.65
2022-08-26T10:39:46.056Z,6.72
2022-08-26T10:42:20.806Z,6.03
2022-08-26T10:44:52.373Z,7.78
2022-08-26T10:47:27.024Z,11.38
2022-08-26T10:50:00.451Z,6.95
2022-08-26T10:52:41.579Z,8.38
2022-08-26T10:55:17.977Z,7.88
2022-08-26T10:57:52.946Z,8.32
2022-08-26T11:00:44.154Z,11.68
2022-08-26T11:03:24.573Z,10.85
2022-08-26T11:06:21.161Z,8.85
2022-08-26T11:08:50.993Z,3.47
2022-08-26T11:11:51.082Z,6.00
2022-08-26T11:14:40.698Z,11.73
2022-08-26T11:17:56.778Z,8.57
2022-08-26T11:20:37.380Z,8.38
2022-08-26T11:26:35.433Z,15.05
2022-08-26T11:29:04.446Z,11.02
2022-08-26T11:32:04.310Z,9.27
2022-08-26T11:34:56.589Z,9.35
2022-08-26T11:37:40.492Z,8.82
2022-08-26T11:40:13.053Z,7.00
2022-08-26T11:42:44.500Z,10.63
2022-08-26T11:45:23.405Z,12.90
2022-08-26T11:47:51.801Z,7.60
2022-08-26T11:50:23.563Z,11.00
2022-08-26T11:52:56.621Z,4.72
2022-08-26T11:55:25.431Z,13.43
2022-08-26T11:57:56.220Z,6.50
2022-08-26T12:00:33.578Z,6.28
2022-08-26T12:03:07.967Z,6.93
2022-08-26T12:05:39.496Z,5.05
2022-08-26T12:08:11.953Z,5.80
2022-08-26T12:13:09.078Z,4.78
2022-08-26T12:15:38.388Z,5.70
2022-08-26T12:18:22.086Z,5.50
2022-08-26T12:20:59.521Z,9.88
2022-08-26T12:23:37.957Z,4.85
2022-08-26T12:26:11.422Z,6.78
2022-08-26T12:28:50.891Z,7.32
2022-08-26T12:31:27.569Z,6.78
2022-08-26T12:33:56.864Z,5.40
2022-08-26T12:36:31.506Z,5.87
2022-08-26T12:41:41.543Z,10.88
2022-08-26T12:44:09.882Z,7.03
2022-08-26T12:46:39.198Z,5.97
2022-08-26T12:49:07.258Z,5.60
2022-08-26T12:51:41.889Z,6.13
2022-08-26T12:54:15.941Z,4.70
2022-08-26T12:56:43.962Z,4.05
2022-08-26T12:59:25.084Z,4.47
2022-08-26T13:01:55.626Z,11.48
2022-08-26T13:04:38.949Z,10.68
2022-08-26T13:07:22.159Z,4.00
2022-08-26T13:09:51.597Z,6.85
2022-08-26T13:12:31.061Z,7.25
2022-08-26T13:15:00.786Z,9.05
2022-08-26T13:17:31.582Z,4.63
2022-08-26T13:20:04.106Z,5.40
2022-08-26T13:22:32.961Z,4.50
2022-08-26T13:25:01.216Z,3.33
2022-08-26T13:27:29.257Z,2.90
2022-08-26T13:29:59.040Z,2.60
2022-08-26T13:32:27.807Z,4.13
2022-08-26T13:34:58.555Z,6.32
2022-08-26T13:37:34.913Z,3.42
2022-08-26T13:40:04.856Z,4.13
2022-08-26T13:42:33.126Z,6.55
2022-08-26T13:45:02.886Z,5.90
2022-08-26T13:47:31.152Z,6.53
2022-08-26T13:50:00.502Z,4.70
2022-08-26T13:52:30.521Z,3.92
2022-08-26T13:55:00.053Z,7.93
2022-08-26T13:57:28.539Z,4.28
2022-08-26T13:59:58.871Z,2.95
2022-08-26T14:02:27.542Z,8.90
2022-08-26T14:04:55.868Z,5.65
2022-08-26T14:07:26.653Z,7.13
2022-08-26T14:09:54.887Z,3.65
2022-08-26T14:12:22.885Z,7.53
2022-08-26T14:14:51.138Z,3.55
2022-08-26T14:17:22.587Z,3.25
2022-08-26T14:19:52.131Z,3.87
2022-08-26T14:22:21.719Z,8.90
2022-08-26T14:24:51.666Z,11.20
2022-08-26T14:27:19.996Z,4.07
2022-08-26T14:29:48.098Z,7.88
2022-08-26T14:32:22.931Z,9.52
2022-08-26T14:34:51.688Z,4.20
2022-08-26T14:37:23.270Z,3.70
2022-08-26T14:39:52.986Z,3.25
2022-08-26T14:42:25.842Z,2.55
2022-08-26T14:45:02.624Z,16.33
2022-08-26T14:47:39.236Z,4.05
2022-08-26T14:50:14.284Z,3.90
2022-08-26T14:53:12.688Z,5.45
2022-08-26T14:55:55.538Z,3.95
2022-08-26T14:58:52.414Z,3.20
2022-08-26T15:01:26.262Z,4.13
2022-08-26T15:04:12.854Z,7.05
2022-08-26T15:06:46.159Z,4.05
2022-08-26T15:09:25.955Z,5.30
2022-08-26T15:11:55.699Z,4.85
2022-08-26T15:14:32.920Z,4.93
2022-08-26T15:17:01.961Z,6.07
2022-08-26T15:19:37.240Z,4.85
2022-08-26T15:22:05.985Z,5.07
2022-08-26T15:24:39.196Z,6.50
2022-08-26T15:27:09.105Z,6.05
2022-08-26T15:29:43.941Z,4.50
2022-08-26T15:32:24.685Z,4.70
2022-08-26T15:34:55.589Z,7.28
2022-08-26T15:37:24.067Z,5.50
2022-08-26T15:39:58.036Z,9.00
2022-08-26T15:42:28.175Z,8.90
2022-08-26T15:44:56.350Z,6.07
2022-08-26T15:47:24.626Z,9.57
2022-08-26T15:49:52.719Z,5.70
2022-08-26T15:52:23.614Z,8.38
2022-08-26T15:54:54.099Z,6.00
2022-08-26T15:58:11.456Z,4.43
2022-08-26T16:01:10.248Z,5.85
2022-08-26T16:03:40.376Z,7.30
2022-08-26T16:06:39.299Z,5.60
2022-08-26T16:09:37.868Z,8.88
2022-08-26T16:12:19.291Z,6.45
2022-08-26T16:14:52.759Z,7.43
2022-08-26T16:17:22.323Z,4.53
2022-08-26T16:19:54.801Z,5.65
2022-08-26T16:24:54.442Z,7.72
2022-08-26T16:27:23.232Z,6.18
2022-08-26T16:29:51.349Z,6.55
2022-08-26T16:32:19.360Z,8.32
2022-08-26T16:34:56.295Z,6.78
2022-08-26T16:37:24.559Z,10.50
2022-08-26T16:39:52.551Z,6.82
2022-08-26T16:42:20.587Z,10.45
2022-08-26T16:44:48.670Z,8.95
2022-08-26T16:47:18.233Z,11.07
2022-08-26T16:49:47.937Z,8.50
2022-08-26T16:52:16.426Z,9.45
2022-08-26T16:54:44.435Z,4.55
2022-08-26T16:57:13.819Z,5.95
2022-08-26T16:59:42.057Z,5.68
2022-08-26T17:02:11.757Z,6.38
2022-08-26T17:04:41.091Z,10.93
2022-08-26T17:07:15.513Z,10.32
2022-08-26T17:09:43.489Z,7.60
2022-08-26T17:12:11.502Z,13.38
2022-08-26T17:14:39.427Z,7.35
2022-08-26T17:17:07.378Z,15.95
2022-08-26T17:19:40.890Z,6.72
2022-08-26T17:22:16.899Z,10.43
2022-08-26T17:24:45.018Z,10.18
2022-08-26T17:27:13.049Z,9.90
2022-08-26T17:29:41.108Z,10.43
2022-08-26T17:32:09.071Z,9.77
2022-08-26T17:34:37.113Z,10.27
2022-08-26T17:37:05.273Z,10.85
2022-08-26T17:39:34.536Z,12.90
2022-08-26T17:42:02.542Z,8.60
2022-08-26T17:44:30.512Z,8.90
2022-08-26T17:46:58.464Z,16.50
2022-08-26T17:49:27.358Z,15.23
2022-08-26T17:51:57.869Z,14.68
2022-08-26T17:54:27.630Z,18.33
2022-08-26T17:56:59.636Z,16.23
2022-08-26T17:59:30.760Z,11.95
2022-08-26T18:01:59.633Z,11.25
2022-08-26T18:04:27.763Z,12.85
2022-08-26T18:06:55.858Z,12.85
2022-08-26T18:09:23.809Z,14.57
2022-08-26T18:11:51.838Z,13.48
2022-08-26T18:14:21.774Z,15.45
2022-08-26T18:16:50.965Z,20.48
2022-08-26T18:19:18.966Z,26.27
2022-08-26T18:21:46.946Z,12.55
2022-08-26T18:24:15.106Z,12.90
2022-08-26T18:26:48.240Z,16.30
2022-08-26T18:29:18.265Z,16.35
2022-08-26T18:31:48.465Z,14.75
2022-08-26T18:34:16.912Z,10.20
2022-08-26T18:36:45.100Z,28.80
2022-08-26T18:39:15.993Z,13.73
2022-08-26T18:41:46.935Z,11.55
2022-08-26T18:44:16.393Z,10.32
2022-08-26T18:46:46.129Z,18.00
2022-08-26T18:49:17.489Z,9.57
2022-08-26T18:51:46.556Z,11.40
2022-08-26T18:56:51.706Z,19.55
2022-08-26T18:59:20.310Z,15.77
2022-08-26T19:01:58.915Z,13.48
2022-08-26T19:04:28.515Z,13.45
2022-08-26T19:06:57.020Z,13.02
2022-08-26T19:09:27.877Z,12.40
2022-08-26T19:14:25.091Z,11.70
2022-08-26T19:16:53.374Z,11.82
2022-08-26T19:19:24.486Z,9.93
2022-08-26T19:21:54.472Z,17.08
2022-08-26T19:24:23.193Z,12.48
2022-08-26T19:26:59.774Z,9.48
2022-08-26T19:29:33.043Z,10.48
2022-08-26T19:32:01.910Z,17.13
2022-08-26T19:34:30.558Z,14.35
2022-08-26T19:36:59.897Z,13.88
2022-08-26T19:39:28.073Z,13.05
2022-08-26T19:41:56.205Z,9.85
2022-08-26T19:44:44.701Z,13.13
2022-08-26T19:47:13.293Z,13.70
2022-08-26T19:49:41.447Z,18.98
2022-08-26T19:52:12.212Z,12.32
2022-08-26T19:54:40.925Z,13.50
2022-08-26T19:57:09.035Z,13.88
2022-08-26T19:59:37.160Z,13.13
2022-08-26T20:02:08.620Z,11.43
2022-08-26T20:04:39.085Z,16.20
2022-08-26T20:07:07.159Z,13.02
2022-08-26T20:09:36.857Z,21.80
2022-08-26T20:12:06.890Z,20.38
2022-08-26T20:14:35.878Z,11.00
2022-08-26T20:17:04.649Z,10.75
2022-08-26T20:19:50.476Z,10.60
2022-08-26T20:22:19.306Z,11.43
2022-08-26T20:24:53.161Z,10.85
2022-08-26T20:27:27.405Z,12.02
2022-08-26T20:30:07.899Z,14.02
2022-08-26T20:32:36.350Z,15.13
2022-08-26T20:35:06.604Z,11.98
2022-08-26T20:37:35.612Z,12.23
2022-08-26T20:40:06.620Z,15.95
2022-08-26T20:42:34.698Z,12.30
2022-08-26T20:45:03.199Z,13.43
2022-08-26T20:47:31.401Z,14.15
2022-08-26T20:49:59.751Z,11.38
2022-08-26T20:52:27.874Z,11.07
2022-08-26T20:54:55.922Z,13.35
2022-08-26T20:57:25.390Z,13.68
2022-08-26T20:59:53.498Z,10.68
2022-08-26T21:02:21.479Z,18.33
2022-08-26T21:04:49.504Z,15.38
2022-08-26T21:07:17.708Z,11.00
2022-08-26T21:09:45.797Z,12.65
2022-08-26T21:12:13.830Z,12.35
2022-08-26T21:14:47.728Z,15.25
2022-08-26T21:17:17.429Z,12.02
2022-08-26T21:19:45.409Z,12.48
2022-08-26T21:22:14.089Z,12.82
2022-08-26T21:24:42.081Z,13.23
2022-08-26T21:27:10.057Z,14.38
2022-08-26T21:29:38.308Z,15.15
2022-08-26T21:32:07.936Z,11.75
2022-08-26T21:34:37.989Z,8.60
2022-08-26T21:37:13.327Z,14.55
2022-08-26T21:39:44.954Z,9.95
2022-08-26T21:42:13.000Z,8.73
2022-08-26T21:44:41.055Z,16.05
2022-08-26T21:47:10.504Z,12.93
2022-08-26T21:49:38.912Z,10.10
2022-08-26T21:52:07.083Z,11.52
2022-08-26T21:54:35.367Z,10.00
2022-08-26T21:57:03.305Z,20.92
2022-08-26T21:59:31.289Z,13.60
2022-08-26T22:01:59.470Z,7.80
2022-08-26T22:04:29.025Z,13.57
2022-08-26T22:06:58.845Z,9.98
2022-08-26T22:09:28.894Z,12.27
2022-08-26T22:11:57.431Z,12.30
2022-08-26T22:14:30.361Z,12.13
2022-08-26T22:17:00.025Z,11.30
2022-08-26T22:19:31.692Z,15.25
2022-08-26T22:22:03.752Z,13.32
2022-08-26T22:24:31.731Z,17.33
2022-08-26T22:26:59.807Z,15.98
2022-08-26T22:29:31.052Z,13.25
2022-08-26T22:31:59.907Z,10.32
2022-08-26T22:34:29.514Z,10.70
2022-08-26T22:36:57.651Z,13.40
2022-08-26T22:39:27.210Z,14.65
2022-08-26T22:41:56.762Z,13.00
2022-08-26T22:44:24.974Z,15.18
2022-08-26T22:46:55.061Z,16.15
2022-08-26T22:49:23.865Z,11.38
2022-08-26T22:51:53.179Z,14.10
2022-08-26T22:54:21.424Z,11.48
2022-08-26T22:56:49.618Z,13.73
2022-08-26T22:59:18.038Z,16.60
2022-08-26T23:01:46.868Z,16.08
2022-08-26T23:04:15.470Z,9.68
2022-08-26T23:06:47.322Z,16.27
2022-08-26T23:11:47.672Z,20.33
2022-08-26T23:14:16.315Z,19.77
2022-08-26T23:16:44.720Z,11.75
2022-08-26T23:19:15.216Z,10.38
2022-08-26T23:21:43.645Z,15.65
2022-08-26T23:24:11.755Z,23.52
2022-08-26T23:26:42.542Z,13.15
2022-08-26T23:29:12.735Z,16.45
2022-08-26T23:31:42.184Z,22.60
2022-08-26T23:34:27.799Z,20.25
2022-08-26T23:36:58.337Z,22.48
2022-08-26T23:39:26.491Z,17.92
2022-08-26T23:41:56.872Z,15.05
2022-08-26T23:44:26.448Z,12.60
2022-08-26T23:46:54.902Z,14.00
2022-08-26T23:49:23.201Z,16.35
2022-08-26T23:52:08.526Z,13.32
2022-08-26T23:54:36.649Z,14.30
2022-08-26T23:57:06.696Z,17.02
2022-08-26T23:59:35.101Z,15.88
